sensor_id;sensor_type;location;lat;lon;timestamp;P1;durP1;ratioP1;P2;durP2;ratioP2
14394;SDS011;7282;49.204;10.652;2022-12-07T00:00:37;18.40;;;15.43;;
14394;SDS011;7282;49.204;10.652;2022-12-07T00:03:04;20.47;;;16.03;;
14394;SDS011;7282;49.204;10.652;2022-12-07T00:05:31;22.83;;;16.10;;
14394;SDS011;7282;49.204;10.652;2022-12-07T00:07:57;22.33;;;17.37;;
14394;SDS011;7282;49.204;10.652;2022-12-07T00:10:24;23.03;;;17.10;;
14394;SDS011;7282;49.204;10.652;2022-12-07T00:12:51;21.83;;;17.33;;
14394;SDS011;7282;49.204;10.652;2022-12-07T00:15:17;23.43;;;17.80;;
14394;SDS011;7282;49.204;10.652;2022-12-07T00:17:44;24.70;;;18.03;;
14394;SDS011;7282;49.204;10.652;2022-12-07T00:20:11;23.93;;;17.30;;
14394;SDS011;7282;49.204;10.652;2022-12-07T00:22:37;23.53;;;17.07;;
14394;SDS011;7282;49.204;10.652;2022-12-07T00:25:04;26.07;;;19.23;;
14394;SDS011;7282;49.204;10.652;2022-12-07T00:27:31;25.10;;;17.80;;
14394;SDS011;7282;49.204;10.652;2022-12-07T00:29:58;24.03;;;17.73;;
14394;SDS011;7282;49.204;10.652;2022-12-07T00:32:24;23.40;;;17.77;;
14394;SDS011;7282;49.204;10.652;2022-12-07T00:34:51;24.00;;;18.33;;
14394;SDS011;7282;49.204;10.652;2022-12-07T00:37:18;22.77;;;16.90;;
14394;SDS011;7282;49.204;10.652;2022-12-07T00:39:45;21.97;;;17.03;;
14394;SDS011;7282;49.204;10.652;2022-12-07T00:42:12;24.00;;;17.53;;
14394;SDS011;7282;49.204;10.652;2022-12-07T00:44:38;24.63;;;18.30;;
14394;SDS011;7282;49.204;10.652;2022-12-07T00:47:05;23.67;;;18.10;;
14394;SDS011;7282;49.204;10.652;2022-12-07T00:49:32;24.37;;;17.67;;
14394;SDS011;7282;49.204;10.652;2022-12-07T00:51:59;24.40;;;18.40;;
14394;SDS011;7282;49.204;10.652;2022-12-07T00:54:25;22.63;;;17.87;;
14394;SDS011;7282;49.204;10.652;2022-12-07T00:56:52;23.53;;;17.43;;
14394;SDS011;7282;49.204;10.652;2022-12-07T00:59:19;23.03;;;16.63;;
14394;SDS011;7282;49.204;10.652;2022-12-07T01:01:45;22.30;;;17.40;;
14394;SDS011;7282;49.204;10.652;2022-12-07T01:04:12;24.00;;;17.40;;
14394;SDS011;7282;49.204;10.652;2022-12-07T01:06:39;24.97;;;19.07;;
14394;SDS011;7282;49.204;10.652;2022-12-07T01:09:05;24.17;;;17.53;;
14394;SDS011;7282;49.204;10.652;2022-12-07T01:11:32;27.30;;;18.83;;
14394;SDS011;7282;49.204;10.652;2022-12-07T01:13:59;24.77;;;17.97;;
14394;SDS011;7282;49.204;10.652;2022-12-07T01:16:28;25.97;;;19.03;;
14394;SDS011;7282;49.204;10.652;2022-12-07T01:18:55;25.33;;;18.07;;
14394;SDS011;7282;49.204;10.652;2022-12-07T01:21:23;23.77;;;17.33;;
14394;SDS011;7282;49.204;10.652;2022-12-07T01:23:50;24.40;;;17.53;;
14394;SDS011;7282;49.204;10.652;2022-12-07T01:26:19;27.90;;;19.93;;
14394;SDS011;7282;49.204;10.652;2022-12-07T01:28:45;25.57;;;18.43;;
14394;SDS011;7282;49.204;10.652;2022-12-07T01:31:13;26.63;;;19.00;;
14394;SDS011;7282;49.204;10.652;2022-12-07T01:33:44;28.37;;;19.97;;
14394;SDS011;7282;49.204;10.652;2022-12-07T01:36:15;27.40;;;19.57;;
14394;SDS011;7282;49.204;10.652;2022-12-07T01:38:43;30.20;;;20.23;;
14394;SDS011;7282;49.204;10.652;2022-12-07T01:41:09;26.47;;;17.97;;
14394;SDS011;7282;49.204;10.652;2022-12-07T01:43:36;26.73;;;18.80;;
14394;SDS011;7282;49.204;10.652;2022-12-07T01:46:03;28.33;;;19.70;;
14394;SDS011;7282;49.204;10.652;2022-12-07T01:48:32;28.03;;;19.83;;
14394;SDS011;7282;49.204;10.652;2022-12-07T01:51:00;30.40;;;20.57;;
14394;SDS011;7282;49.204;10.652;2022-12-07T01:53:28;28.23;;;20.83;;
14394;SDS011;7282;49.204;10.652;2022-12-07T01:55:55;29.63;;;20.37;;
14394;SDS011;7282;49.204;10.652;2022-12-07T01:58:23;29.73;;;20.60;;
14394;SDS011;7282;49.204;10.652;2022-12-07T02:00:50;30.23;;;20.53;;
14394;SDS011;7282;49.204;10.652;2022-12-07T02:03:18;34.00;;;22.03;;
14394;SDS011;7282;49.204;10.652;2022-12-07T02:05:45;33.30;;;21.60;;
14394;SDS011;7282;49.204;10.652;2022-12-07T02:08:12;36.23;;;22.60;;
14394;SDS011;7282;49.204;10.652;2022-12-07T02:10:39;31.60;;;21.33;;
14394;SDS011;7282;49.204;10.652;2022-12-07T02:13:08;30.20;;;21.50;;
14394;SDS011;7282;49.204;10.652;2022-12-07T02:20:52;29.70;;;20.30;;
14394;SDS011;7282;49.204;10.652;2022-12-07T02:28:53;30.90;;;20.70;;
14394;SDS011;7282;49.204;10.652;2022-12-07T02:31:18;28.50;;;21.07;;
14394;SDS011;7282;49.204;10.652;2022-12-07T02:33:50;32.73;;;21.17;;
14394;SDS011;7282;49.204;10.652;2022-12-07T02:36:21;32.00;;;21.57;;
14394;SDS011;7282;49.204;10.652;2022-12-07T02:38:49;33.90;;;21.70;;
14394;SDS011;7282;49.204;10.652;2022-12-07T02:44:05;36.63;;;22.80;;
14394;SDS011;7282;49.204;10.652;2022-12-07T02:46:38;35.30;;;22.77;;
14394;SDS011;7282;49.204;10.652;2022-12-07T02:49:05;33.57;;;22.17;;
14394;SDS011;7282;49.204;10.652;2022-12-07T02:51:33;35.33;;;23.07;;
14394;SDS011;7282;49.204;10.652;2022-12-07T02:54:00;38.77;;;23.00;;
14394;SDS011;7282;49.204;10.652;2022-12-07T02:59:20;34.17;;;21.30;;
14394;SDS011;7282;49.204;10.652;2022-12-07T03:01:55;31.30;;;21.77;;
14394;SDS011;7282;49.204;10.652;2022-12-07T03:07:00;31.60;;;21.20;;
14394;SDS011;7282;49.204;10.652;2022-12-07T03:09:35;32.60;;;20.50;;
14394;SDS011;7282;49.204;10.652;2022-12-07T03:12:06;34.13;;;21.73;;
14394;SDS011;7282;49.204;10.652;2022-12-07T03:14:30;32.00;;;21.17;;
14394;SDS011;7282;49.204;10.652;2022-12-07T03:17:01;31.77;;;21.10;;
14394;SDS011;7282;49.204;10.652;2022-12-07T03:19:27;31.83;;;21.10;;
14394;SDS011;7282;49.204;10.652;2022-12-07T03:22:02;30.87;;;20.57;;
14394;SDS011;7282;49.204;10.652;2022-12-07T03:24:41;33.20;;;21.47;;
14394;SDS011;7282;49.204;10.652;2022-12-07T03:27:03;28.67;;;19.50;;
14394;SDS011;7282;49.204;10.652;2022-12-07T03:29:35;30.00;;;20.17;;
14394;SDS011;7282;49.204;10.652;2022-12-07T03:32:05;34.93;;;21.47;;
14394;SDS011;7282;49.204;10.652;2022-12-07T03:35:16;31.03;;;20.87;;
14394;SDS011;7282;49.204;10.652;2022-12-07T03:37:08;32.27;;;21.07;;
14394;SDS011;7282;49.204;10.652;2022-12-07T03:39:37;31.53;;;20.90;;
14394;SDS011;7282;49.204;10.652;2022-12-07T03:42:05;33.77;;;21.67;;
14394;SDS011;7282;49.204;10.652;2022-12-07T03:44:33;31.93;;;21.53;;
14394;SDS011;7282;49.204;10.652;2022-12-07T03:47:20;33.67;;;22.10;;
14394;SDS011;7282;49.204;10.652;2022-12-07T03:52:18;33.20;;;22.50;;
14394;SDS011;7282;49.204;10.652;2022-12-07T03:54:43;36.43;;;22.13;;
14394;SDS011;7282;49.204;10.652;2022-12-07T03:57:10;34.43;;;22.23;;
14394;SDS011;7282;49.204;10.652;2022-12-07T03:59:38;35.37;;;22.67;;
14394;SDS011;7282;49.204;10.652;2022-12-07T04:02:05;36.47;;;22.17;;
14394;SDS011;7282;49.204;10.652;2022-12-07T04:04:32;35.90;;;23.20;;
14394;SDS011;7282;49.204;10.652;2022-12-07T04:06:59;38.07;;;24.13;;
14394;SDS011;7282;49.204;10.652;2022-12-07T04:09:26;37.00;;;22.63;;
14394;SDS011;7282;49.204;10.652;2022-12-07T04:11:53;34.63;;;22.70;;
14394;SDS011;7282;49.204;10.652;2022-12-07T04:14:19;36.23;;;23.83;;
14394;SDS011;7282;49.204;10.652;2022-12-07T04:16:50;33.07;;;22.33;;
14394;SDS011;7282;49.204;10.652;2022-12-07T04:19:18;34.13;;;22.83;;
14394;SDS011;7282;49.204;10.652;2022-12-07T04:21:45;34.30;;;21.93;;
14394;SDS011;7282;49.204;10.652;2022-12-07T04:24:12;36.37;;;22.93;;
14394;SDS011;7282;49.204;10.652;2022-12-07T04:26:39;30.63;;;21.27;;
14394;SDS011;7282;49.204;10.652;2022-12-07T04:29:07;33.70;;;21.23;;
14394;SDS011;7282;49.204;10.652;2022-12-07T04:31:34;36.07;;;21.37;;
14394;SDS011;7282;49.204;10.652;2022-12-07T04:34:00;36.63;;;22.60;;
14394;SDS011;7282;49.204;10.652;2022-12-07T04:36:27;35.00;;;22.60;;
14394;SDS011;7282;49.204;10.652;2022-12-07T04:38:54;37.33;;;22.97;;
14394;SDS011;7282;49.204;10.652;2022-12-07T04:41:21;40.00;;;23.23;;
14394;SDS011;7282;49.204;10.652;2022-12-07T04:43:56;38.33;;;24.70;;
14394;SDS011;7282;49.204;10.652;2022-12-07T04:46:23;40.93;;;24.47;;
14394;SDS011;7282;49.204;10.652;2022-12-07T04:48:50;39.50;;;23.63;;
14394;SDS011;7282;49.204;10.652;2022-12-07T04:51:22;38.90;;;25.13;;
14394;SDS011;7282;49.204;10.652;2022-12-07T04:53:45;44.20;;;24.50;;
14394;SDS011;7282;49.204;10.652;2022-12-07T04:56:15;37.07;;;23.50;;
14394;SDS011;7282;49.204;10.652;2022-12-07T04:58:43;39.93;;;23.47;;
14394;SDS011;7282;49.204;10.652;2022-12-07T05:01:10;37.63;;;22.73;;
14394;SDS011;7282;49.204;10.652;2022-12-07T05:03:37;40.67;;;23.67;;
14394;SDS011;7282;49.204;10.652;2022-12-07T05:06:03;40.63;;;24.00;;
14394;SDS011;7282;49.204;10.652;2022-12-07T05:08:31;38.53;;;24.17;;
14394;SDS011;7282;49.204;10.652;2022-12-07T05:10:58;36.83;;;23.17;;
14394;SDS011;7282;49.204;10.652;2022-12-07T05:13:25;39.50;;;25.40;;
14394;SDS011;7282;49.204;10.652;2022-12-07T05:15:52;40.27;;;23.87;;
14394;SDS011;7282;49.204;10.652;2022-12-07T05:18:19;40.40;;;23.63;;
14394;SDS011;7282;49.204;10.652;2022-12-07T05:20:45;42.37;;;24.10;;
14394;SDS011;7282;49.204;10.652;2022-12-07T05:23:12;40.13;;;24.47;;
14394;SDS011;7282;49.204;10.652;2022-12-07T05:25:39;39.63;;;25.90;;
14394;SDS011;7282;49.204;10.652;2022-12-07T05:28:06;39.83;;;25.30;;
14394;SDS011;7282;49.204;10.652;2022-12-07T05:30:33;40.40;;;25.20;;
14394;SDS011;7282;49.204;10.652;2022-12-07T05:32:59;41.87;;;23.97;;
14394;SDS011;7282;49.204;10.652;2022-12-07T05:35:26;41.03;;;23.20;;
14394;SDS011;7282;49.204;10.652;2022-12-07T05:37:53;39.17;;;24.20;;
14394;SDS011;7282;49.204;10.652;2022-12-07T05:40:19;37.97;;;23.83;;
14394;SDS011;7282;49.204;10.652;2022-12-07T05:42:46;36.80;;;23.80;;
14394;SDS011;7282;49.204;10.652;2022-12-07T05:45:13;37.83;;;23.33;;
14394;SDS011;7282;49.204;10.652;2022-12-07T05:47:39;43.57;;;24.93;;
14394;SDS011;7282;49.204;10.652;2022-12-07T05:50:06;41.37;;;24.47;;
14394;SDS011;7282;49.204;10.652;2022-12-07T05:52:33;43.00;;;24.60;;
14394;SDS011;7282;49.204;10.652;2022-12-07T05:55:00;41.63;;;25.00;;
14394;SDS011;7282;49.204;10.652;2022-12-07T05:57:27;40.10;;;24.70;;
14394;SDS011;7282;49.204;10.652;2022-12-07T05:59:53;43.73;;;25.83;;
14394;SDS011;7282;49.204;10.652;2022-12-07T06:02:20;42.07;;;24.87;;
14394;SDS011;7282;49.204;10.652;2022-12-07T06:04:47;39.70;;;25.90;;
14394;SDS011;7282;49.204;10.652;2022-12-07T06:07:14;43.10;;;25.27;;
14394;SDS011;7282;49.204;10.652;2022-12-07T06:09:41;41.57;;;24.63;;
14394;SDS011;7282;49.204;10.652;2022-12-07T06:12:09;40.23;;;24.33;;
14394;SDS011;7282;49.204;10.652;2022-12-07T06:14:54;40.33;;;23.97;;
14394;SDS011;7282;49.204;10.652;2022-12-07T06:17:21;36.83;;;23.30;;
14394;SDS011;7282;49.204;10.652;2022-12-07T06:19:48;41.63;;;24.83;;
14394;SDS011;7282;49.204;10.652;2022-12-07T06:22:14;63.93;;;29.90;;
14394;SDS011;7282;49.204;10.652;2022-12-07T06:24:42;43.17;;;25.13;;
14394;SDS011;7282;49.204;10.652;2022-12-07T06:27:09;47.33;;;28.27;;
14394;SDS011;7282;49.204;10.652;2022-12-07T06:29:36;39.63;;;23.17;;
14394;SDS011;7282;49.204;10.652;2022-12-07T06:32:02;36.23;;;23.10;;
14394;SDS011;7282;49.204;10.652;2022-12-07T06:34:29;39.37;;;22.30;;
14394;SDS011;7282;49.204;10.652;2022-12-07T06:36:56;40.63;;;24.67;;
14394;SDS011;7282;49.204;10.652;2022-12-07T06:39:24;39.87;;;23.70;;
14394;SDS011;7282;49.204;10.652;2022-12-07T06:41:51;37.37;;;23.93;;
14394;SDS011;7282;49.204;10.652;2022-12-07T06:44:18;38.40;;;21.70;;
14394;SDS011;7282;49.204;10.652;2022-12-07T06:46:45;41.53;;;23.60;;
14394;SDS011;7282;49.204;10.652;2022-12-07T06:49:12;35.73;;;22.70;;
14394;SDS011;7282;49.204;10.652;2022-12-07T06:51:38;46.97;;;24.37;;
14394;SDS011;7282;49.204;10.652;2022-12-07T06:54:10;37.27;;;23.07;;
14394;SDS011;7282;49.204;10.652;2022-12-07T06:56:37;41.33;;;23.23;;
14394;SDS011;7282;49.204;10.652;2022-12-07T06:59:05;37.43;;;22.50;;
14394;SDS011;7282;49.204;10.652;2022-12-07T07:01:33;35.73;;;23.00;;
14394;SDS011;7282;49.204;10.652;2022-12-07T07:03:59;38.30;;;23.33;;
14394;SDS011;7282;49.204;10.652;2022-12-07T07:06:26;39.47;;;22.97;;
14394;SDS011;7282;49.204;10.652;2022-12-07T07:08:53;35.23;;;22.40;;
14394;SDS011;7282;49.204;10.652;2022-12-07T07:11:19;39.93;;;25.23;;
14394;SDS011;7282;49.204;10.652;2022-12-07T07:13:46;42.53;;;25.60;;
14394;SDS011;7282;49.204;10.652;2022-12-07T07:16:13;41.77;;;23.07;;
14394;SDS011;7282;49.204;10.652;2022-12-07T07:18:40;38.20;;;23.73;;
14394;SDS011;7282;49.204;10.652;2022-12-07T07:21:06;40.40;;;24.60;;
14394;SDS011;7282;49.204;10.652;2022-12-07T07:23:33;40.97;;;24.43;;
14394;SDS011;7282;49.204;10.652;2022-12-07T07:26:00;42.57;;;25.40;;
14394;SDS011;7282;49.204;10.652;2022-12-07T07:28:27;39.20;;;24.20;;
14394;SDS011;7282;49.204;10.652;2022-12-07T07:30:53;43.63;;;25.77;;
14394;SDS011;7282;49.204;10.652;2022-12-07T07:33:20;41.63;;;24.97;;
14394;SDS011;7282;49.204;10.652;2022-12-07T07:35:47;40.73;;;25.00;;
14394;SDS011;7282;49.204;10.652;2022-12-07T07:38:13;42.27;;;25.53;;
14394;SDS011;7282;49.204;10.652;2022-12-07T07:40:40;42.20;;;25.13;;
14394;SDS011;7282;49.204;10.652;2022-12-07T07:43:07;41.73;;;25.43;;
14394;SDS011;7282;49.204;10.652;2022-12-07T07:45:34;39.50;;;25.17;;
14394;SDS011;7282;49.204;10.652;2022-12-07T07:48:00;40.63;;;25.23;;
14394;SDS011;7282;49.204;10.652;2022-12-07T07:50:27;41.63;;;25.60;;
14394;SDS011;7282;49.204;10.652;2022-12-07T07:52:54;38.33;;;24.73;;
14394;SDS011;7282;49.204;10.652;2022-12-07T07:55:21;41.20;;;24.10;;
14394;SDS011;7282;49.204;10.652;2022-12-07T07:57:47;40.67;;;24.40;;
14394;SDS011;7282;49.204;10.652;2022-12-07T08:00:14;42.27;;;25.40;;
14394;SDS011;7282;49.204;10.652;2022-12-07T08:02:41;37.70;;;23.40;;
14394;SDS011;7282;49.204;10.652;2022-12-07T08:05:10;37.13;;;23.40;;
14394;SDS011;7282;49.204;10.652;2022-12-07T08:07:37;40.30;;;23.80;;
14394;SDS011;7282;49.204;10.652;2022-12-07T08:10:05;36.70;;;23.70;;
14394;SDS011;7282;49.204;10.652;2022-12-07T08:12:35;36.37;;;23.13;;
14394;SDS011;7282;49.204;10.652;2022-12-07T08:15:00;36.77;;;23.23;;
14394;SDS011;7282;49.204;10.652;2022-12-07T08:17:27;37.43;;;23.40;;
14394;SDS011;7282;49.204;10.652;2022-12-07T08:19:53;39.03;;;23.83;;
14394;SDS011;7282;49.204;10.652;2022-12-07T08:22:20;37.70;;;23.50;;
14394;SDS011;7282;49.204;10.652;2022-12-07T08:24:47;39.83;;;23.77;;
14394;SDS011;7282;49.204;10.652;2022-12-07T08:27:14;36.87;;;24.13;;
14394;SDS011;7282;49.204;10.652;2022-12-07T08:29:40;33.27;;;21.60;;
14394;SDS011;7282;49.204;10.652;2022-12-07T08:32:07;36.10;;;22.23;;
14394;SDS011;7282;49.204;10.652;2022-12-07T08:34:34;35.17;;;22.10;;
14394;SDS011;7282;49.204;10.652;2022-12-07T08:37:00;32.90;;;20.93;;
14394;SDS011;7282;49.204;10.652;2022-12-07T08:39:27;35.50;;;21.43;;
14394;SDS011;7282;49.204;10.652;2022-12-07T08:41:54;31.97;;;22.47;;
14394;SDS011;7282;49.204;10.652;2022-12-07T08:44:21;32.13;;;20.47;;
14394;SDS011;7282;49.204;10.652;2022-12-07T08:46:49;33.67;;;21.00;;
14394;SDS011;7282;49.204;10.652;2022-12-07T08:49:18;33.77;;;20.23;;
14394;SDS011;7282;49.204;10.652;2022-12-07T08:51:45;31.53;;;19.77;;
14394;SDS011;7282;49.204;10.652;2022-12-07T08:54:13;29.07;;;19.40;;
14394;SDS011;7282;49.204;10.652;2022-12-07T08:56:40;26.93;;;18.73;;
14394;SDS011;7282;49.204;10.652;2022-12-07T08:59:07;30.27;;;18.93;;
14394;SDS011;7282;49.204;10.652;2022-12-07T09:01:34;28.13;;;18.40;;
14394;SDS011;7282;49.204;10.652;2022-12-07T09:04:01;24.57;;;17.63;;
14394;SDS011;7282;49.204;10.652;2022-12-07T09:06:28;24.67;;;17.33;;
14394;SDS011;7282;49.204;10.652;2022-12-07T09:08:56;25.10;;;17.03;;
14394;SDS011;7282;49.204;10.652;2022-12-07T09:11:23;25.50;;;18.30;;
14394;SDS011;7282;49.204;10.652;2022-12-07T09:13:50;22.37;;;16.27;;
14394;SDS011;7282;49.204;10.652;2022-12-07T09:16:17;24.33;;;17.03;;
14394;SDS011;7282;49.204;10.652;2022-12-07T09:18:43;23.80;;;16.17;;
14394;SDS011;7282;49.204;10.652;2022-12-07T09:21:10;22.00;;;15.47;;
14394;SDS011;7282;49.204;10.652;2022-12-07T09:23:37;21.93;;;15.47;;
14394;SDS011;7282;49.204;10.652;2022-12-07T09:26:04;20.87;;;14.80;;
14394;SDS011;7282;49.204;10.652;2022-12-07T09:28:30;19.63;;;14.27;;
14394;SDS011;7282;49.204;10.652;2022-12-07T09:30:57;19.23;;;14.33;;
14394;SDS011;7282;49.204;10.652;2022-12-07T09:33:24;24.23;;;14.67;;
14394;SDS011;7282;49.204;10.652;2022-12-07T09:35:51;23.30;;;15.37;;
14394;SDS011;7282;49.204;10.652;2022-12-07T09:38:18;20.20;;;15.00;;
14394;SDS011;7282;49.204;10.652;2022-12-07T09:40:46;19.97;;;13.97;;
14394;SDS011;7282;49.204;10.652;2022-12-07T09:43:19;19.00;;;13.13;;
14394;SDS011;7282;49.204;10.652;2022-12-07T09:45:42;18.20;;;12.70;;
14394;SDS011;7282;49.204;10.652;2022-12-07T09:48:20;22.50;;;14.17;;
14394;SDS011;7282;49.204;10.652;2022-12-07T09:50:39;18.43;;;13.00;;
14394;SDS011;7282;49.204;10.652;2022-12-07T09:53:07;20.57;;;12.47;;
14394;SDS011;7282;49.204;10.652;2022-12-07T09:55:34;17.67;;;12.90;;
14394;SDS011;7282;49.204;10.652;2022-12-07T09:58:02;19.73;;;13.27;;
14394;SDS011;7282;49.204;10.652;2022-12-07T10:00:29;19.00;;;12.10;;
14394;SDS011;7282;49.204;10.652;2022-12-07T10:02:57;17.90;;;13.07;;
14394;SDS011;7282;49.204;10.652;2022-12-07T10:05:31;19.60;;;12.80;;
14394;SDS011;7282;49.204;10.652;2022-12-07T10:07:58;18.33;;;13.00;;
14394;SDS011;7282;49.204;10.652;2022-12-07T10:10:26;18.00;;;11.97;;
14394;SDS011;7282;49.204;10.652;2022-12-07T10:13:00;17.10;;;12.50;;
14394;SDS011;7282;49.204;10.652;2022-12-07T10:18:14;16.63;;;12.20;;
14394;SDS011;7282;49.204;10.652;2022-12-07T10:20:33;16.60;;;11.80;;
14394;SDS011;7282;49.204;10.652;2022-12-07T10:23:01;15.27;;;10.63;;
14394;SDS011;7282;49.204;10.652;2022-12-07T10:25:29;15.03;;;10.77;;
14394;SDS011;7282;49.204;10.652;2022-12-07T10:27:58;15.13;;;11.57;;
14394;SDS011;7282;49.204;10.652;2022-12-07T10:30:25;13.30;;;10.60;;
14394;SDS011;7282;49.204;10.652;2022-12-07T10:32:52;14.77;;;11.20;;
14394;SDS011;7282;49.204;10.652;2022-12-07T10:37:47;16.83;;;10.80;;
14394;SDS011;7282;49.204;10.652;2022-12-07T10:43:38;12.53;;;9.80;;
14394;SDS011;7282;49.204;10.652;2022-12-07T10:45:27;15.73;;;11.10;;
14394;SDS011;7282;49.204;10.652;2022-12-07T10:53:19;13.83;;;10.10;;
14394;SDS011;7282;49.204;10.652;2022-12-07T10:55:48;16.10;;;12.00;;
14394;SDS011;7282;49.204;10.652;2022-12-07T11:01:03;16.80;;;11.00;;
14394;SDS011;7282;49.204;10.652;2022-12-07T11:03:53;15.83;;;11.70;;
14394;SDS011;7282;49.204;10.652;2022-12-07T11:06:25;17.27;;;12.37;;
14394;SDS011;7282;49.204;10.652;2022-12-07T11:08:56;15.87;;;13.00;;
14394;SDS011;7282;49.204;10.652;2022-12-07T11:11:43;17.27;;;12.20;;
14394;SDS011;7282;49.204;10.652;2022-12-07T11:21:48;13.93;;;11.53;;
14394;SDS011;7282;49.204;10.652;2022-12-07T11:24:16;15.33;;;11.90;;
14394;SDS011;7282;49.204;10.652;2022-12-07T11:26:58;14.73;;;11.97;;
14394;SDS011;7282;49.204;10.652;2022-12-07T11:29:29;17.63;;;13.07;;
14394;SDS011;7282;49.204;10.652;2022-12-07T11:31:58;14.60;;;11.73;;
14394;SDS011;7282;49.204;10.652;2022-12-07T11:36:59;15.27;;;11.57;;
14394;SDS011;7282;49.204;10.652;2022-12-07T11:39:35;15.93;;;12.70;;
14394;SDS011;7282;49.204;10.652;2022-12-07T11:42:08;15.43;;;11.77;;
14394;SDS011;7282;49.204;10.652;2022-12-07T11:47:20;15.70;;;11.97;;
14394;SDS011;7282;49.204;10.652;2022-12-07T11:49:49;12.40;;;10.60;;
14394;SDS011;7282;49.204;10.652;2022-12-07T11:55:01;15.90;;;11.57;;
14394;SDS011;7282;49.204;10.652;2022-12-07T11:57:37;17.10;;;12.47;;
14394;SDS011;7282;49.204;10.652;2022-12-07T12:00:01;13.97;;;11.90;;
14394;SDS011;7282;49.204;10.652;2022-12-07T12:02:33;16.07;;;12.60;;
14394;SDS011;7282;49.204;10.652;2022-12-07T12:07:35;18.37;;;12.93;;
14394;SDS011;7282;49.204;10.652;2022-12-07T12:10:06;17.10;;;12.60;;
14394;SDS011;7282;49.204;10.652;2022-12-07T12:15:14;17.80;;;13.20;;
14394;SDS011;7282;49.204;10.652;2022-12-07T12:20:32;17.80;;;12.90;;
14394;SDS011;7282;49.204;10.652;2022-12-07T12:23:11;17.80;;;13.93;;
14394;SDS011;7282;49.204;10.652;2022-12-07T12:25:36;16.23;;;13.87;;
14394;SDS011;7282;49.204;10.652;2022-12-07T12:28:03;15.63;;;13.73;;
14394;SDS011;7282;49.204;10.652;2022-12-07T12:30:32;18.23;;;14.10;;
14394;SDS011;7282;49.204;10.652;2022-12-07T12:35:44;20.87;;;14.67;;
14394;SDS011;7282;49.204;10.652;2022-12-07T12:38:31;17.17;;;13.33;;
14394;SDS011;7282;49.204;10.652;2022-12-07T12:41:00;17.67;;;13.97;;
14394;SDS011;7282;49.204;10.652;2022-12-07T12:43:40;17.37;;;13.53;;
14394;SDS011;7282;49.204;10.652;2022-12-07T12:48:53;18.93;;;14.37;;
14394;SDS011;7282;49.204;10.652;2022-12-07T12:51:37;16.80;;;13.83;;
14394;SDS011;7282;49.204;10.652;2022-12-07T12:54:15;16.13;;;13.23;;
14394;SDS011;7282;49.204;10.652;2022-12-07T12:56:40;19.50;;;14.13;;
14394;SDS011;7282;49.204;10.652;2022-12-07T13:01:46;18.33;;;14.13;;
14394;SDS011;7282;49.204;10.652;2022-12-07T13:04:27;21.30;;;16.20;;
14394;SDS011;7282;49.204;10.652;2022-12-07T13:06:53;23.70;;;17.03;;
14394;SDS011;7282;49.204;10.652;2022-12-07T13:09:21;19.93;;;15.03;;
14394;SDS011;7282;49.204;10.652;2022-12-07T13:11:49;23.40;;;17.07;;
14394;SDS011;7282;49.204;10.652;2022-12-07T13:17:01;23.57;;;16.83;;
14394;SDS011;7282;49.204;10.652;2022-12-07T13:24:58;23.50;;;16.57;;
14394;SDS011;7282;49.204;10.652;2022-12-07T13:27:26;23.23;;;16.93;;
14394;SDS011;7282;49.204;10.652;2022-12-07T13:29:54;22.07;;;15.90;;
14394;SDS011;7282;49.204;10.652;2022-12-07T13:32:26;23.50;;;18.03;;
14394;SDS011;7282;49.204;10.652;2022-12-07T13:34:52;23.30;;;17.57;;
14394;SDS011;7282;49.204;10.652;2022-12-07T13:37:24;22.63;;;15.50;;
14394;SDS011;7282;49.204;10.652;2022-12-07T13:39:51;23.77;;;17.03;;
14394;SDS011;7282;49.204;10.652;2022-12-07T13:44:47;25.80;;;17.60;;
14394;SDS011;7282;49.204;10.652;2022-12-07T13:49:59;28.03;;;19.23;;
14394;SDS011;7282;49.204;10.652;2022-12-07T13:52:26;26.40;;;18.73;;
14394;SDS011;7282;49.204;10.652;2022-12-07T13:55:13;24.17;;;17.90;;
14394;SDS011;7282;49.204;10.652;2022-12-07T13:57:35;26.97;;;19.17;;
14394;SDS011;7282;49.204;10.652;2022-12-07T14:00:06;29.37;;;19.80;;
14394;SDS011;7282;49.204;10.652;2022-12-07T14:02:33;29.93;;;21.20;;
14394;SDS011;7282;49.204;10.652;2022-12-07T14:07:35;29.33;;;20.20;;
14394;SDS011;7282;49.204;10.652;2022-12-07T14:10:03;29.00;;;20.27;;
14394;SDS011;7282;49.204;10.652;2022-12-07T14:12:31;26.60;;;19.13;;
14394;SDS011;7282;49.204;10.652;2022-12-07T14:14:58;28.47;;;18.30;;
14394;SDS011;7282;49.204;10.652;2022-12-07T14:17:26;25.17;;;18.50;;
14394;SDS011;7282;49.204;10.652;2022-12-07T14:19:58;25.63;;;18.57;;
14394;SDS011;7282;49.204;10.652;2022-12-07T14:22:32;22.40;;;17.33;;
14394;SDS011;7282;49.204;10.652;2022-12-07T14:25:09;26.17;;;17.80;;
14394;SDS011;7282;49.204;10.652;2022-12-07T14:27:33;26.73;;;18.23;;
14394;SDS011;7282;49.204;10.652;2022-12-07T14:30:00;25.97;;;17.60;;
14394;SDS011;7282;49.204;10.652;2022-12-07T14:32:28;28.23;;;18.23;;
14394;SDS011;7282;49.204;10.652;2022-12-07T14:35:03;25.93;;;18.63;;
14394;SDS011;7282;49.204;10.652;2022-12-07T14:37:30;25.50;;;19.83;;
14394;SDS011;7282;49.204;10.652;2022-12-07T14:39:56;24.93;;;18.10;;
14394;SDS011;7282;49.204;10.652;2022-12-07T14:42:24;24.13;;;17.80;;
14394;SDS011;7282;49.204;10.652;2022-12-07T14:44:51;28.50;;;18.67;;
14394;SDS011;7282;49.204;10.652;2022-12-07T14:47:18;24.03;;;16.63;;
14394;SDS011;7282;49.204;10.652;2022-12-07T14:49:44;25.40;;;18.13;;
14394;SDS011;7282;49.204;10.652;2022-12-07T14:52:16;25.00;;;18.10;;
14394;SDS011;7282;49.204;10.652;2022-12-07T14:54:40;90.67;;;60.13;;
14394;SDS011;7282;49.204;10.652;2022-12-07T14:57:08;62.30;;;48.27;;
14394;SDS011;7282;49.204;10.652;2022-12-07T14:59:35;20.87;;;16.07;;
14394;SDS011;7282;49.204;10.652;2022-12-07T15:02:02;21.87;;;16.80;;
14394;SDS011;7282;49.204;10.652;2022-12-07T15:04:28;21.53;;;17.53;;
14394;SDS011;7282;49.204;10.652;2022-12-07T15:07:00;21.80;;;17.73;;
14394;SDS011;7282;49.204;10.652;2022-12-07T15:09:27;25.60;;;17.50;;
14394;SDS011;7282;49.204;10.652;2022-12-07T15:11:53;28.57;;;19.17;;
14394;SDS011;7282;49.204;10.652;2022-12-07T15:14:20;25.40;;;18.30;;
14394;SDS011;7282;49.204;10.652;2022-12-07T15:16:47;26.27;;;19.43;;
14394;SDS011;7282;49.204;10.652;2022-12-07T15:19:14;25.40;;;17.67;;
14394;SDS011;7282;49.204;10.652;2022-12-07T15:21:42;26.87;;;18.43;;
14394;SDS011;7282;49.204;10.652;2022-12-07T15:24:09;25.00;;;18.20;;
14394;SDS011;7282;49.204;10.652;2022-12-07T15:26:36;28.23;;;19.03;;
14394;SDS011;7282;49.204;10.652;2022-12-07T15:29:03;24.13;;;18.13;;
14394;SDS011;7282;49.204;10.652;2022-12-07T15:31:30;27.17;;;19.17;;
14394;SDS011;7282;49.204;10.652;2022-12-07T15:33:57;27.23;;;19.63;;
14394;SDS011;7282;49.204;10.652;2022-12-07T15:36:25;29.63;;;20.23;;
14394;SDS011;7282;49.204;10.652;2022-12-07T15:38:52;29.47;;;19.83;;
14394;SDS011;7282;49.204;10.652;2022-12-07T15:41:18;28.70;;;19.63;;
14394;SDS011;7282;49.204;10.652;2022-12-07T15:43:45;27.80;;;20.30;;
14394;SDS011;7282;49.204;10.652;2022-12-07T15:46:30;26.83;;;18.80;;
14394;SDS011;7282;49.204;10.652;2022-12-07T15:48:58;31.03;;;19.77;;
14394;SDS011;7282;49.204;10.652;2022-12-07T15:51:24;25.43;;;19.00;;